| time (UTC) | temp C | wind direction | speed KPH | gust KPH | rain 1hr cm | rain 24hr cm | rain mn cm | humidity % | barometer mb |
| 20260904212532 | 14 | 257 | 8.0 | 11.3 | 0.00 | 0.30 | 0.30 | 76 | 1019.3 |
| 20260904211530 | 14 | 257 | 6.4 | 9.7 | 0.00 | 0.30 | 0.30 | 76 | 1019.3 |
| 20260904210528 | 14 | 267 | 4.8 | 9.7 | 0.00 | 0.30 | 0.30 | 75 | 1019.1 |
| 20260904205546 | 15 | 259 | 6.4 | 11.3 | 0.00 | 0.30 | 0.30 | 74 | 1019.1 |
| 20260904204525 | 15 | 259 | 8.0 | 16.1 | 0.00 | 0.30 | 0.30 | 74 | 1019.0 |
| 20260904203543 | 15 | 257 | 8.0 | 12.9 | 0.00 | 0.30 | 0.30 | 73 | 1019.0 |
| 20260904202521 | 15 | 262 | 8.0 | 14.5 | 0.00 | 0.30 | 0.30 | 73 | 1019.1 |
| 20260904201519 | 15 | 262 | 8.0 | 12.9 | 0.00 | 0.30 | 0.30 | 73 | 1018.9 |
| 20260904200517 | 15 | 263 | 9.7 | 14.5 | 0.00 | 0.30 | 0.30 | 72 | 1018.7 |
| 20260904195535 | 15 | 262 | 9.7 | 14.5 | 0.00 | 0.30 | 0.30 | 71 | 1018.5 |
| 20260904194553 | 16 | 260 | 9.7 | 14.5 | 0.00 | 0.30 | 0.30 | 70 | 1018.5 |
| 20260904193552 | 16 | 265 | 9.7 | 17.7 | 0.00 | 0.30 | 0.30 | 69 | 1018.4 |
| 20260904192530 | 16 | 269 | 8.0 | 17.7 | 0.00 | 0.30 | 0.30 | 68 | 1018.2 |
| 20260904191608 | 16 | 264 | 9.7 | 19.3 | 0.00 | 0.30 | 0.30 | 67 | 1017.9 |
| 20260904190526 | 16 | 267 | 11.3 | 20.9 | 0.00 | 0.30 | 0.30 | 65 | 1017.9 |
| 20260904185544 | 17 | 272 | 11.3 | 16.1 | 0.00 | 0.30 | 0.30 | 64 | 1017.7 |
| 20260904184603 | 17 | 277 | 9.7 | 17.7 | 0.00 | 0.30 | 0.30 | 64 | 1017.5 |
| 20260904183521 | 17 | 277 | 11.3 | 19.3 | 0.00 | 0.30 | 0.30 | 64 | 1017.5 |
| 20260904182519 | 17 | 280 | 9.7 | 19.3 | 0.00 | 0.30 | 0.30 | 63 | 1017.4 |
| 20260904181517 | 17 | 276 | 9.7 | 16.1 | 0.00 | 0.30 | 0.30 | 62 | 1017.4 |
| 20260904180556 | 17 | 276 | 11.3 | 20.9 | 0.00 | 0.30 | 0.30 | 60 | 1017.4 |
| 20260904175533 | 17 | 271 | 9.7 | 20.9 | 0.00 | 0.30 | 0.30 | 59 | 1017.1 |
| 20260904174552 | 17 | 282 | 12.9 | 25.7 | 0.00 | 0.30 | 0.30 | 59 | 1017.0 |
| 20260904173530 | 18 | 276 | 14.5 | 25.7 | 0.00 | 0.30 | 0.30 | 59 | 1017.1 |
| 20260904172528 | 17 | 284 | 12.9 | 25.7 | 0.00 | 0.30 | 0.30 | 60 | 1017.1 |
| 20260904171526 | 17 | 279 | 12.9 | 25.7 | 0.00 | 0.30 | 0.30 | 60 | 1016.9 |
| 20260904170544 | 17 | 285 | 11.3 | 20.9 | 0.00 | 0.30 | 0.30 | 60 | 1017.0 |
| 20260904165602 | 17 | 274 | 12.9 | 20.9 | 0.00 | 0.30 | 0.30 | 60 | 1016.7 |
| 20260904164701 | 17 | 274 | 9.7 | 19.3 | 0.00 | 0.30 | 0.30 | 60 | 1016.6 |
| 20260904163519 | 17 | 286 | 9.7 | 17.7 | 0.00 | 0.30 | 0.30 | 59 | 1016.4 |
| 20260904162517 | 17 | 279 | 11.3 | 22.5 | 0.00 | 0.30 | 0.30 | 58 | 1016.4 |
| 20260904161535 | 18 | 284 | 11.3 | 22.5 | 0.00 | 0.30 | 0.30 | 58 | 1016.3 |
| 20260904160534 | 18 | 287 | 9.7 | 24.1 | 0.00 | 0.30 | 0.30 | 58 | 1016.3 |
| 20260904155532 | 18 | 285 | 11.3 | 24.1 | 0.00 | 0.30 | 0.30 | 58 | 1016.3 |
| 20260904154530 | 18 | 280 | 11.3 | 24.1 | 0.00 | 0.30 | 0.30 | 58 | 1016.3 |
| 20260904153528 | 18 | 287 | 9.7 | 25.7 | 0.00 | 0.30 | 0.30 | 58 | 1016.2 |
| 20260904152526 | 18 | 276 | 12.9 | 22.5 | 0.00 | 0.30 | 0.30 | 58 | 1016.2 |
| 20260904151524 | 18 | 284 | 9.7 | 22.5 | 0.00 | 0.30 | 0.30 | 58 | 1016.2 |
| 20260904150522 | 18 | 275 | 14.5 | 25.7 | 0.00 | 0.30 | 0.30 | 58 | 1016.2 |
| 20260904145521 | 18 | 270 | 11.3 | 24.1 | 0.00 | 0.30 | 0.30 | 58 | 1016.1 |
| 20260904144519 | 18 | 273 | 11.3 | 20.9 | 0.00 | 0.30 | 0.30 | 58 | 1015.9 |
| 20260904143517 | 18 | 272 | 14.5 | 33.8 | 0.00 | 0.30 | 0.30 | 58 | 1015.8 |
| 20260904142535 | 18 | 280 | 12.9 | 29.0 | 0.00 | 0.30 | 0.30 | 57 | 1015.7 |
| 20260904141533 | 18 | 274 | 14.5 | 27.4 | 0.00 | 0.30 | 0.30 | 57 | 1015.6 |
| 20260904140532 | 18 | 272 | 14.5 | 24.1 | 0.00 | 0.30 | 0.30 | 57 | 1015.6 |
| 20260904135530 | 18 | 276 | 11.3 | 20.9 | 0.00 | 0.30 | 0.30 | 57 | 1015.5 |
| 20260904134528 | 18 | 277 | 11.3 | 20.9 | 0.00 | 0.30 | 0.30 | 56 | 1015.5 |
| 20260904133546 | 18 | 274 | 14.5 | 27.4 | 0.00 | 0.30 | 0.30 | 56 | 1015.5 |
| 20260904132524 | 18 | 276 | 11.3 | 22.5 | 0.00 | 0.30 | 0.30 | 56 | 1015.6 |
| 20260904131542 | 18 | 279 | 12.9 | 29.0 | 0.00 | 0.30 | 0.30 | 57 | 1015.7 |
| 20260904130521 | 18 | 276 | 17.7 | 30.6 | 0.00 | 0.30 | 0.30 | 57 | 1015.6 |
| 20260904125519 | 18 | 280 | 14.5 | 25.7 | 0.00 | 0.30 | 0.30 | 60 | 1015.4 |
| 20260904124517 | 18 | 279 | 11.3 | 22.5 | 0.00 | 0.30 | 0.30 | 59 | 1015.3 |
| 20260904123535 | 18 | 286 | 9.7 | 20.9 | 0.00 | 0.30 | 0.30 | 60 | 1015.0 |
| 20260904122533 | 17 | 277 | 14.5 | 27.4 | 0.00 | 0.30 | 0.30 | 59 | 1015.0 |
| 20260904121532 | 18 | 282 | 16.1 | 30.6 | 0.00 | 0.30 | 0.30 | 60 | 1014.8 |
| 20260904120550 | 18 | 294 | 11.3 | 20.9 | 0.00 | 0.30 | 0.30 | 61 | 1014.7 |
| 20260904115608 | 17 | 279 | 9.7 | 25.7 | 0.00 | 0.30 | 0.30 | 62 | 1014.6 |
| 20260904114548 | 17 | 278 | 12.9 | 24.1 | 0.00 | 0.30 | 0.30 | 63 | 1014.5 |
| 20260904113524 | 17 | 283 | 11.3 | 25.7 | 0.00 | 0.30 | 0.30 | 64 | 1014.5 |
| 20260904112523 | 17 | 289 | 11.3 | 22.5 | 0.00 | 0.30 | 0.30 | 65 | 1014.6 |
| 20260904111541 | 17 | 294 | 8.0 | 19.3 | 0.00 | 0.30 | 0.30 | 69 | 1014.6 |
| 20260904110539 | 17 | 278 | 11.3 | 22.5 | 0.00 | 0.30 | 0.30 | 69 | 1014.4 |
| 20260904105537 | 16 | 286 | 6.4 | 14.5 | 0.00 | 0.30 | 0.30 | 76 | 1014.1 |
| 20260904104535 | 16 | 284 | 8.0 | 16.1 | 0.03 | 0.30 | 0.30 | 78 | 1013.9 |
| 20260904103533 | 16 | 276 | 8.0 | 20.9 | 0.05 | 0.30 | 0.30 | 80 | 1013.9 |
| 20260904102532 | 16 | 280 | 11.3 | 20.9 | 0.05 | 0.30 | 0.30 | 83 | 1013.9 |
| 20260904101530 | 16 | 281 | 11.3 | 17.7 | 0.05 | 0.30 | 0.30 | 88 | 1013.8 |
| 20260904100528 | 15 | 278 | 8.0 | 12.9 | 0.05 | 0.30 | 0.30 | 90 | 1013.8 |
| 20260904095526 | 15 | 282 | 11.3 | 19.3 | 0.05 | 0.30 | 0.30 | 89 | 1013.8 |
| 20260904094524 | 16 | 313 | 4.8 | 14.5 | 0.03 | 0.28 | 0.28 | 88 | 1013.8 |
| 20260904093522 | 16 | 287 | 9.7 | 17.7 | 0.00 | 0.25 | 0.25 | 86 | 1013.6 |
| 20260904092521 | 16 | 282 | 9.7 | 19.3 | 0.00 | 0.25 | 0.25 | 87 | 1013.2 |
| 20260904091539 | 16 | 285 | 8.0 | 16.1 | 0.00 | 0.25 | 0.25 | 87 | 1013.2 |
| 20260904090517 | 16 | 275 | 9.7 | 16.1 | 0.00 | 0.25 | 0.25 | 89 | 1012.9 |
| 20260904085535 | 16 | 257 | 9.7 | 17.7 | 0.03 | 0.25 | 0.25 | 90 | 1012.7 |
| 20260904084553 | 16 | 274 | 11.3 | 16.1 | 0.03 | 0.25 | 0.25 | 91 | 1012.7 |
| 20260904083531 | 16 | 272 | 9.7 | 16.1 | 0.05 | 0.25 | 0.25 | 92 | 1012.7 |
| 20260904082530 | 16 | 274 | 9.7 | 14.5 | 0.05 | 0.25 | 0.25 | 93 | 1012.8 |
| 20260904081528 | 16 | 275 | 8.0 | 14.5 | 0.05 | 0.25 | 0.25 | 93 | 1012.6 |
| 20260904080526 | 16 | 280 | 8.0 | 12.9 | 0.08 | 0.25 | 0.25 | 94 | 1012.5 |
| 20260904075524 | 16 | 279 | 11.3 | 17.7 | 0.08 | 0.23 | 0.23 | 93 | 1012.6 |
| 20260904074523 | 16 | 278 | 9.7 | 16.1 | 0.08 | 0.23 | 0.23 | 93 | 1012.4 |
| 20260904073520 | 16 | 280 | 9.7 | 16.1 | 0.05 | 0.20 | 0.20 | 94 | 1012.1 |
| 20260904072519 | 16 | 279 | 9.7 | 25.7 | 0.05 | 0.20 | 0.20 | 94 | 1012.0 |
| 20260904071517 | 16 | 283 | 9.7 | 16.1 | 0.05 | 0.20 | 0.20 | 94 | 1011.7 |
| 20260904070535 | 16 | 277 | 11.3 | 20.9 | 0.03 | 0.18 | 0.18 | 94 | 1011.8 |
| 20260904065533 | 16 | 279 | 11.3 | 20.9 | 0.03 | 0.15 | 0.15 | 95 | 1011.6 |
| 20260904064532 | 17 | 272 | 8.0 | 12.9 | 0.03 | 0.15 | 0.15 | 94 | 1011.4 |
| 20260904063530 | 17 | 277 | 6.4 | 12.9 | 0.03 | 0.15 | 0.15 | 93 | 1011.4 |
| 20260904062528 | 17 | 276 | 11.3 | 17.7 | 0.03 | 0.15 | 0.15 | 93 | 1011.3 |
| 20260904061546 | 17 | 282 | 8.0 | 14.5 | 0.15 | 0.15 | 0.15 | 92 | 1011.2 |
| 20260904060524 | 17 | 271 | 11.3 | 17.7 | 0.15 | 0.15 | 0.15 | 91 | 1011.0 |
| 20260904055523 | 17 | 276 | 11.3 | 17.7 | 0.15 | 0.15 | 0.15 | 92 | 1010.8 |
| 20260904054521 | 17 | 291 | 12.9 | 24.1 | 0.15 | 0.15 | 0.15 | 90 | 1010.8 |
| 20260904053539 | 17 | 281 | 12.9 | 25.7 | 0.13 | 0.13 | 0.13 | 93 | 1010.6 |
| 20260904052517 | 18 | 282 | 16.1 | 29.0 | 0.13 | 0.13 | 0.13 | 94 | 1010.2 |
| 20260904051535 | 19 | 255 | 20.9 | 37.0 | 0.00 | 0.00 | 0.00 | 91 | 1009.5 |
| 20260904050533 | 19 | 251 | 22.5 | 37.0 | 0.00 | 0.00 | 0.00 | 90 | 1009.5 |
| 20260904045531 | 19 | 259 | 22.5 | 37.0 | 0.00 | 0.00 | 0.00 | 91 | 1009.3 |
| 20260904044530 | 19 | 253 | 24.1 | 41.8 | 0.00 | 0.00 | 0.00 | 91 | 1009.5 |
| 20260904043528 | 19 | 251 | 24.1 | 43.5 | 0.00 | 0.00 | 0.00 | 91 | 1009.4 |
| 20260904042526 | 19 | 260 | 25.7 | 41.8 | 0.00 | 0.00 | 0.00 | 90 | 1009.6 |
| 20260904041524 | 19 | 258 | 24.1 | 48.3 | 0.00 | 0.00 | 0.00 | 90 | 1009.6 |
| 20260904040522 | 19 | 252 | 27.4 | 49.9 | 0.00 | 0.00 | 0.00 | 90 | 1009.6 |
| 20260904035521 | 19 | 256 | 22.5 | 43.5 | 0.00 | 0.00 | 0.00 | 90 | 1009.7 |
| 20260904034519 | 19 | 257 | 27.4 | 41.8 | 0.00 | 0.00 | 0.00 | 91 | 1009.8 |
| 20260904033517 | 19 | 250 | 17.7 | 29.0 | 0.00 | 0.00 | 0.00 | 91 | 1009.9 |
| 20260904032535 | 20 | 265 | 22.5 | 35.4 | 0.00 | 0.00 | 0.00 | 88 | 1010.1 |
| 20260904031533 | 20 | 258 | 22.5 | 43.5 | 0.00 | 0.00 | 0.00 | 85 | 1010.1 |
| 20260904030551 | 20 | 258 | 25.7 | 46.7 | 0.00 | 0.00 | 0.00 | 85 | 1010.0 |
| 20260904025530 | 20 | 261 | 29.0 | 53.1 | 0.00 | 0.00 | 0.00 | 85 | 1010.0 |
| 20260904024548 | 20 | 257 | 20.9 | 38.6 | 0.00 | 0.00 | 0.00 | 85 | 1010.2 |
| 20260904023526 | 20 | 264 | 25.7 | 43.5 | 0.00 | 0.00 | 0.00 | 85 | 1010.3 |
| 20260904022524 | 20 | 261 | 20.9 | 35.4 | 0.00 | 0.00 | 0.00 | 85 | 1010.5 |
| 20260904021522 | 20 | 255 | 20.9 | 43.5 | 0.00 | 0.00 | 0.00 | 86 | 1010.6 |
| 20260904020521 | 20 | 258 | 19.3 | 32.2 | 0.00 | 0.00 | 0.00 | 86 | 1010.8 |
| 20260904015519 | 19 | 259 | 17.7 | 35.4 | 0.00 | 0.00 | 0.00 | 88 | 1010.8 |
| 20260904014517 | 19 | 257 | 20.9 | 33.8 | 0.00 | 0.00 | 0.00 | 88 | 1011.2 |
| 20260904013535 | 19 | 258 | 19.3 | 33.8 | 0.00 | 0.00 | 0.00 | 88 | 1011.2 |
| 20260904012533 | 19 | 262 | 17.7 | 29.0 | 0.00 | 0.00 | 0.00 | 88 | 1011.3 |
| 20260904011531 | 18 | 265 | 17.7 | 29.0 | 0.00 | 0.00 | 0.00 | 87 | 1011.3 |
| 20260904010550 | 18 | 258 | 19.3 | 30.6 | 0.00 | 0.00 | 0.00 | 87 | 1011.6 |
| 20260904005528 | 18 | 264 | 19.3 | 33.8 | 0.00 | 0.00 | 0.00 | 87 | 1011.7 |
| 20260904004526 | 19 | 263 | 16.1 | 25.7 | 0.00 | 0.00 | 0.00 | 84 | 1011.8 |
| 20260904003544 | 19 | 257 | 16.1 | 27.4 | 0.00 | 0.00 | 0.00 | 82 | 1011.9 |
| 20260904002522 | 20 | 262 | 19.3 | 33.8 | 0.00 | 0.00 | 0.00 | 80 | 1011.8 |
| 20260904001521 | 20 | 266 | 16.1 | 32.2 | 0.00 | 0.00 | 0.00 | 79 | 1011.9 |
| 20260904000519 | 19 | 261 | 17.7 | 32.2 | 0.00 | 0.00 | 0.00 | 80 | 1012.1 |
| 20260903235517 | 19 | 267 | 16.1 | 27.4 | 0.00 | 0.00 | 0.00 | 81 | 1012.1 |
| 20260903234535 | 19 | 260 | 17.7 | 29.0 | 0.00 | 0.00 | 0.00 | 81 | 1012.4 |
| 20260903233533 | 19 | 269 | 12.9 | 30.6 | 0.00 | 0.00 | 0.00 | 81 | 1012.3 |
| 20260903232532 | 19 | 265 | 12.9 | 25.7 | 0.00 | 0.00 | 0.00 | 81 | 1012.8 |
| 20260903231529 | 18 | 259 | 12.9 | 27.4 | 0.00 | 0.00 | 0.00 | 83 | 1013.0 |
| 20260903230528 | 18 | 248 | 9.7 | 25.7 | 0.00 | 0.00 | 0.00 | 84 | 1013.1 |
| 20260903225526 | 18 | 266 | 12.9 | 20.9 | 0.00 | 0.00 | 0.00 | 85 | 1013.3 |
| 20260903224524 | 18 | 266 | 12.9 | 22.5 | 0.00 | 0.00 | 0.00 | 88 | 1013.4 |
| 20260903223522 | 18 | 263 | 17.7 | 29.0 | 0.00 | 0.00 | 0.00 | 87 | 1013.6 |
| 20260903222521 | 18 | 261 | 17.7 | 33.8 | 0.00 | 0.00 | 0.00 | 85 | 1013.9 |
| 20260903221519 | 18 | 260 | 17.7 | 38.6 | 0.00 | 0.00 | 0.00 | 84 | 1014.0 |
| 20260903220517 | 18 | 260 | 12.9 | 25.7 | 0.00 | 0.00 | 0.00 | 84 | 1014.3 |
| 20260903215535 | 18 | 263 | 16.1 | 25.7 | 0.00 | 0.00 | 0.00 | 83 | 1014.3 |
| 20260903214533 | 18 | 260 | 14.5 | 24.1 | 0.00 | 0.00 | 0.00 | 83 | 1014.6 |
| 20260903213531 | 18 | 252 | 17.7 | 33.8 | 0.00 | 0.00 | 0.00 | 82 | 1014.8 |